createdAt,value
2023-01-27T00:01:27.281Z,100438.44
2023-01-27T00:03:29.058Z,100438.72
2023-01-27T00:05:30.520Z,100432.69
2023-01-27T00:07:32.539Z,100432.22
2023-01-27T00:09:33.925Z,100439.38
2023-01-27T00:11:53.606Z,100428.34
2023-01-27T00:13:55.360Z,100430.16
2023-01-27T00:15:56.804Z,100427.47
2023-01-27T00:17:58.497Z,100431.56
2023-01-27T00:20:02.444Z,100432.91
2023-01-27T00:22:23.763Z,100434.38
2023-01-27T00:24:37.043Z,100443.03
2023-01-27T00:26:38.438Z,100436.91
2023-01-27T00:28:41.361Z,100429.34
2023-01-27T00:30:42.753Z,100435.53
2023-01-27T00:33:03.953Z,100431.78
2023-01-27T00:35:05.595Z,100435.06
2023-01-27T00:37:07.490Z,100436.03
2023-01-27T00:39:11.238Z,100435.66
2023-01-27T00:41:15.413Z,100439.53
2023-01-27T00:43:16.809Z,100437.75
2023-01-27T00:45:36.836Z,100445.56
2023-01-27T00:47:38.254Z,100443.47
2023-01-27T00:49:39.931Z,100446.25
2023-01-27T00:51:41.944Z,100449.31
2023-01-27T00:53:43.567Z,100447.22
2023-01-27T00:55:47.177Z,100451.59
2023-01-27T00:57:48.599Z,100442.97
2023-01-27T00:59:49.983Z,100457.78
2023-01-27T01:01:51.449Z,100456.16
2023-01-27T01:03:52.990Z,100464.56
2023-01-27T01:05:54.372Z,100461.44
2023-01-27T01:07:55.777Z,100463.81
2023-01-27T01:09:57.134Z,100464.50
2023-01-27T01:11:58.491Z,100466.81
2023-01-27T01:13:59.877Z,100460.91
2023-01-27T01:16:09.882Z,100469.84
2023-01-27T01:18:11.696Z,100462.47
2023-01-27T01:20:13.654Z,100462.16
2023-01-27T01:22:15.276Z,100466.59
2023-01-27T01:24:17.647Z,100462.03
2023-01-27T01:26:19.063Z,100470.69
2023-01-27T01:28:21.177Z,100467.38
2023-01-27T01:30:26.069Z,100466.06
2023-01-27T01:32:27.456Z,100480.88
2023-01-27T01:34:28.939Z,100474.03
2023-01-27T01:36:30.347Z,100466.59
2023-01-27T01:38:31.740Z,100483.03
2023-01-27T01:40:33.883Z,100481.84
2023-01-27T01:42:53.607Z,100480.66
2023-01-27T01:45:44.188Z,100481.63
2023-01-27T01:47:45.623Z,100484.22
2023-01-27T01:49:47.791Z,100484.34
2023-01-27T01:51:56.311Z,100477.66
2023-01-27T01:54:07.334Z,100476.84
2023-01-27T01:56:14.522Z,100471.78
2023-01-27T01:58:16.779Z,100479.03
2023-01-27T02:00:18.444Z,100476.31
2023-01-27T02:02:25.242Z,100473.69
2023-01-27T02:04:34.477Z,100478.78
2023-01-27T02:06:44.669Z,100472.88
2023-01-27T02:08:49.129Z,100477.44
2023-01-27T02:10:52.375Z,100474.94
2023-01-27T02:12:53.764Z,100478.38
2023-01-27T02:14:55.221Z,100470.69
2023-01-27T02:16:57.954Z,100465.22
2023-01-27T02:18:59.370Z,100463.69
2023-01-27T02:21:01.081Z,100476.31
2023-01-27T02:23:41.701Z,100471.78
2023-01-27T02:25:55.242Z,100477.25
2023-01-27T02:27:56.544Z,100472.06
2023-01-27T02:29:57.891Z,100471.22
2023-01-27T02:31:59.297Z,100468.78
2023-01-27T02:34:09.044Z,100474.66
2023-01-27T02:36:13.602Z,100469.84
2023-01-27T02:38:17.315Z,100479.75
2023-01-27T02:40:19.196Z,100477.13
2023-01-27T02:42:20.619Z,100475.03
2023-01-27T02:44:22.262Z,100470.44
2023-01-27T02:46:23.759Z,100476.91
2023-01-27T02:48:25.349Z,100475.91
2023-01-27T02:50:26.797Z,100469.97
2023-01-27T02:52:28.177Z,100477.13
2023-01-27T02:54:30.439Z,100475.78
2023-01-27T02:56:32.168Z,100474.13
2023-01-27T02:58:33.815Z,100475.66
2023-01-27T03:00:35.390Z,100478.63
2023-01-27T03:02:36.810Z,100477.44
2023-01-27T03:04:38.832Z,100479.44
2023-01-27T03:06:40.226Z,100480.41
2023-01-27T03:08:42.305Z,100472.75
2023-01-27T03:10:43.851Z,100477.00
2023-01-27T03:12:48.459Z,100472.44
2023-01-27T03:15:09.693Z,100472.06
2023-01-27T03:17:29.494Z,100474.38
2023-01-27T03:19:30.767Z,100467.38
2023-01-27T03:21:32.113Z,100463.13
2023-01-27T03:23:34.425Z,100469.84
2023-01-27T03:25:36.230Z,100471.63
2023-01-27T03:27:37.727Z,100476.41
2023-01-27T03:29:57.894Z,100475.88
2023-01-27T03:31:59.316Z,100476.69
2023-01-27T03:34:00.713Z,100470.97
2023-01-27T03:36:21.206Z,100473.94
2023-01-27T03:38:40.965Z,100475.56
2023-01-27T03:41:00.857Z,100475.56
2023-01-27T03:43:21.268Z,100477.34
2023-01-27T03:45:41.093Z,100480.91
2023-01-27T03:47:42.403Z,100469.69
2023-01-27T03:49:43.793Z,100471.31
2023-01-27T03:51:45.180Z,100477.22
2023-01-27T03:53:46.947Z,100481.09
2023-01-27T03:55:48.348Z,100483.53
2023-01-27T03:57:49.722Z,100483.53
2023-01-27T03:59:51.091Z,100486.13
2023-01-27T04:01:52.543Z,100486.97
2023-01-27T04:04:12.750Z,100485.34
2023-01-27T04:06:36.835Z,100483.41
2023-01-27T04:08:38.202Z,100486.66
2023-01-27T04:10:39.576Z,100487.25
2023-01-27T04:12:40.975Z,100474.09
2023-01-27T04:14:42.393Z,100484.34
2023-01-27T04:16:43.913Z,100481.22
2023-01-27T04:18:49.816Z,100475.97
2023-01-27T04:20:51.881Z,100480.50
2023-01-27T04:22:53.761Z,100482.44
2023-01-27T04:24:55.170Z,100483.41
2023-01-27T04:27:00.089Z,100488.31
2023-01-27T04:29:02.592Z,100490.25
2023-01-27T04:31:04.148Z,100487.66
2023-01-27T04:33:06.251Z,100490.50
2023-01-27T04:35:08.284Z,100493.75
2023-01-27T04:37:10.553Z,100498.16
2023-01-27T04:39:12.276Z,100497.47
2023-01-27T04:41:13.858Z,100501.75
2023-01-27T04:43:15.263Z,100500.75
2023-01-27T04:45:16.675Z,100502.41
2023-01-27T04:47:18.026Z,100498.84
2023-01-27T04:49:19.449Z,100500.91
2023-01-27T04:51:20.874Z,100498.00
2023-01-27T04:53:22.249Z,100498.97
2023-01-27T04:55:23.721Z,100499.50
2023-01-27T04:57:25.642Z,100500.31
2023-01-27T04:59:27.447Z,100507.31
2023-01-27T05:01:29.871Z,100503.63
2023-01-27T05:03:31.255Z,100514.72
2023-01-27T05:05:33.044Z,100512.94
2023-01-27T05:07:34.441Z,100517.47
2023-01-27T05:09:35.839Z,100509.66
2023-01-27T05:11:37.240Z,100519.91
2023-01-27T05:13:40.827Z,100522.22
2023-01-27T05:15:42.293Z,100524.84
2023-01-27T05:17:43.738Z,100518.66
2023-01-27T05:19:45.102Z,100522.91
2023-01-27T05:21:46.510Z,100523.75
2023-01-27T05:23:48.146Z,100527.00
2023-01-27T05:25:49.588Z,100521.66
2023-01-27T05:27:53.644Z,100525.06
2023-01-27T05:29:55.029Z,100523.16
2023-01-27T05:31:56.647Z,100531.94
2023-01-27T05:33:59.692Z,100533.72
2023-01-27T05:36:02.719Z,100531.94
2023-01-27T05:38:04.167Z,100539.91
2023-01-27T05:40:06.094Z,100540.19
2023-01-27T05:42:07.498Z,100541.41
2023-01-27T05:44:11.732Z,100541.72
2023-01-27T05:46:16.500Z,100540.72
2023-01-27T05:48:18.167Z,100546.47
2023-01-27T05:50:19.621Z,100543.06
2023-01-27T05:52:21.106Z,100543.19
2023-01-27T05:54:22.508Z,100545.66
2023-01-27T05:56:25.476Z,100543.72
2023-01-27T05:58:27.021Z,100538.50
2023-01-27T06:00:28.411Z,100544.25
2023-01-27T06:02:29.782Z,100543.94
2023-01-27T06:04:31.355Z,100541.19
2023-01-27T06:06:33.331Z,100543.94
2023-01-27T06:08:35.902Z,100546.72
2023-01-27T06:10:37.437Z,100545.47
2023-01-27T06:12:38.805Z,100545.59
2023-01-27T06:14:40.195Z,100547.53
2023-01-27T06:16:43.524Z,100545.47
2023-01-27T06:18:45.864Z,100544.75
2023-01-27T06:20:47.402Z,100547.91
2023-01-27T06:22:50.457Z,100546.25
2023-01-27T06:24:51.871Z,100552.59
2023-01-27T06:26:53.281Z,100552.28
2023-01-27T06:28:56.487Z,100552.28
2023-01-27T06:31:14.848Z,100555.38
2023-01-27T06:33:16.423Z,100556.97
2023-01-27T06:35:17.779Z,100556.56
2023-01-27T06:37:19.160Z,100557.38
2023-01-27T06:39:20.692Z,100559.28
2023-01-27T06:41:22.148Z,100564.69
2023-01-27T06:43:23.733Z,100563.56
2023-01-27T06:45:25.437Z,100568.63
2023-01-27T06:47:26.797Z,100571.38
2023-01-27T06:49:28.145Z,100571.38
2023-01-27T06:51:29.525Z,100569.28
2023-01-27T06:53:32.409Z,100564.38
2023-01-27T06:55:39.113Z,100575.47
2023-01-27T06:57:41.111Z,100576.47
2023-01-27T06:59:42.530Z,100577.41
2023-01-27T07:01:43.951Z,100576.28
2023-01-27T07:03:45.593Z,100579.06
2023-01-27T07:05:47.193Z,100585.47
2023-01-27T07:07:48.552Z,100586.44
2023-01-27T07:12:15.253Z,100588.09
2023-01-27T07:14:16.784Z,100590.16
2023-01-27T07:16:18.207Z,100593.47
2023-01-27T07:18:19.699Z,100590.41
2023-01-27T07:20:21.126Z,100598.53
2023-01-27T07:22:22.604Z,100595.91
2023-01-27T07:24:23.974Z,100599.03
2023-01-27T07:26:25.445Z,100605.53
2023-01-27T07:28:26.837Z,100602.63
2023-01-27T07:30:28.463Z,100601.81
2023-01-27T07:32:29.867Z,100603.13
2023-01-27T07:34:31.245Z,100599.72
2023-01-27T07:36:32.752Z,100602.19
2023-01-27T07:38:34.090Z,100607.94
2023-01-27T07:40:36.185Z,100605.47
2023-01-27T07:42:37.609Z,100607.50
2023-01-27T07:44:38.998Z,100609.56
2023-01-27T07:46:40.362Z,100602.13
2023-01-27T07:48:41.743Z,100612.72
2023-01-27T07:50:43.084Z,100612.41
2023-01-27T07:52:44.511Z,100601.84
2023-01-27T07:54:45.954Z,100609.38
2023-01-27T07:56:47.403Z,100611.44
2023-01-27T07:58:48.791Z,100608.69
2023-01-27T08:00:50.228Z,100614.59
2023-01-27T08:02:52.826Z,100613.75
2023-01-27T08:04:54.628Z,100616.25
2023-01-27T08:06:56.020Z,100616.75
2023-01-27T08:08:57.417Z,100619.50
2023-01-27T08:11:03.290Z,100621.97
2023-01-27T08:13:05.790Z,100624.94
2023-01-27T08:15:07.700Z,100617.28
2023-01-27T08:17:09.166Z,100624.94
2023-01-27T08:19:10.730Z,100621.00
2023-01-27T08:21:13.122Z,100623.03
2023-01-27T08:23:14.562Z,100623.69
2023-01-27T08:25:15.973Z,100627.94
2023-01-27T08:27:17.711Z,100625.16
2023-01-27T08:29:19.092Z,100630.38
2023-01-27T08:31:21.013Z,100631.69
2023-01-27T08:33:23.666Z,100627.94
2023-01-27T08:35:25.042Z,100630.69
2023-01-27T08:37:26.532Z,100631.38
2023-01-27T08:39:27.961Z,100634.34
2023-01-27T08:41:29.434Z,100634.22
2023-01-27T08:43:31.362Z,100637.78
2023-01-27T08:45:33.282Z,100632.56
2023-01-27T08:47:34.657Z,100632.72
2023-01-27T08:49:36.105Z,100628.81
2023-01-27T08:51:37.566Z,100629.72
2023-01-27T08:56:12.443Z,100638.91
2023-01-27T08:58:13.809Z,100636.16
2023-01-27T09:00:16.365Z,100638.47
2023-01-27T09:02:18.006Z,100643.53
2023-01-27T09:04:21.227Z,100643.91
2023-01-27T09:06:22.695Z,100647.78
2023-01-27T09:08:24.846Z,100656.28
2023-01-27T09:10:26.334Z,100653.69
2023-01-27T09:12:27.794Z,100649.97
2023-01-27T09:14:29.206Z,100654.72
2023-01-27T09:16:30.669Z,100655.84
2023-01-27T09:18:32.658Z,100664.66
2023-01-27T09:20:36.972Z,100667.78
2023-01-27T09:22:40.181Z,100676.59
2023-01-27T09:24:41.581Z,100671.81
2023-01-27T09:26:43.546Z,100670.38
2023-01-27T09:28:44.887Z,100675.34
2023-01-27T09:30:46.911Z,100686.88
2023-01-27T09:32:48.535Z,100685.09
2023-01-27T09:34:49.911Z,100689.97
2023-01-27T09:36:57.680Z,100678.78
2023-01-27T09:39:06.017Z,100682.34
2023-01-27T09:41:29.398Z,100683.53
2023-01-27T09:44:12.539Z,100690.84
2023-01-27T09:46:35.701Z,100689.88
2023-01-27T09:49:08.151Z,100690.28
2023-01-27T09:51:18.422Z,100693.53
2023-01-27T09:53:44.808Z,100697.63
2023-01-27T09:56:08.539Z,100695.19
2023-01-27T09:58:24.837Z,100700.41
2023-01-27T10:00:32.587Z,100701.75
2023-01-27T10:02:46.384Z,100703.91
2023-01-27T10:05:01.875Z,100700.97
2023-01-27T10:07:27.717Z,100707.34
2023-01-27T10:09:38.469Z,100701.66
2023-01-27T10:12:08.654Z,100702.81
2023-01-27T10:14:52.419Z,100701.66
2023-01-27T10:16:59.538Z,100704.94
2023-01-27T10:19:07.439Z,100700.41
2023-01-27T10:21:33.674Z,100703.97
2023-01-27T10:24:12.464Z,100699.56
2023-01-27T10:26:29.183Z,100707.56
2023-01-27T10:28:32.009Z,100701.38
2023-01-27T10:30:36.410Z,100705.63
2023-01-27T10:32:45.010Z,100710.34
2023-01-27T10:34:58.133Z,100710.94
2023-01-27T10:37:05.339Z,100708.75
2023-01-27T10:39:23.411Z,100707.28
2023-01-27T10:41:46.491Z,100706.50
2023-01-27T10:44:00.006Z,100707.69
2023-01-27T10:46:20.715Z,100703.59
2023-01-27T10:48:37.080Z,100703.94
2023-01-27T10:50:45.956Z,100705.22
2023-01-27T10:52:59.922Z,100698.38
2023-01-27T10:55:12.798Z,100704.41
2023-01-27T10:57:33.238Z,100705.09
2023-01-27T11:02:45.775Z,100696.47
2023-01-27T11:04:52.466Z,100696.47
2023-01-27T11:06:55.366Z,100701.00
2023-01-27T11:09:26.785Z,100698.38
2023-01-27T11:11:46.760Z,100691.84
2023-01-27T11:13:49.594Z,100685.50
2023-01-27T11:15:51.313Z,100682.44
2023-01-27T11:18:01.438Z,100686.47
2023-01-27T11:20:27.742Z,100683.41
2023-01-27T11:22:37.757Z,100680.63
2023-01-27T11:25:14.703Z,100677.72
2023-01-27T11:27:36.466Z,100673.97
2023-01-27T11:29:56.251Z,100677.81
2023-01-27T11:32:08.481Z,100671.50
2023-01-27T11:34:54.637Z,100678.66
2023-01-27T11:36:56.147Z,100683.38
2023-01-27T11:39:01.573Z,100677.00
2023-01-27T11:41:03.007Z,100680.75
2023-01-27T11:43:05.207Z,100683.38
2023-01-27T11:45:14.081Z,100685.16
2023-01-27T11:47:24.596Z,100686.34
2023-01-27T11:49:31.845Z,100684.31
2023-01-27T11:51:39.271Z,100687.91
2023-01-27T11:53:41.437Z,100683.38
2023-01-27T11:55:47.719Z,100682.91
2023-01-27T11:58:07.164Z,100686.88
2023-01-27T12:00:28.826Z,100680.75
2023-01-27T12:02:38.295Z,100681.41
2023-01-27T12:04:59.784Z,100677.38
2023-01-27T12:07:28.407Z,100683.63
2023-01-27T12:09:31.512Z,100675.19
2023-01-27T12:11:33.048Z,100673.72
2023-01-27T12:13:34.459Z,100675.06
2023-01-27T12:15:38.049Z,100664.03
2023-01-27T12:17:47.185Z,100664.53
2023-01-27T12:19:48.740Z,100672.97
2023-01-27T12:21:54.162Z,100666.44
2023-01-27T12:23:56.682Z,100668.56
2023-01-27T12:26:03.877Z,100673.63
2023-01-27T12:28:05.362Z,100668.69
2023-01-27T12:30:17.986Z,100668.69
2023-01-27T12:32:35.232Z,100660.78
2023-01-27T12:34:37.983Z,100664.75
2023-01-27T12:36:42.307Z,100666.91
2023-01-27T12:39:00.147Z,100660.06
2023-01-27T12:41:04.801Z,100664.59
2023-01-27T12:43:13.431Z,100663.19
2023-01-27T12:45:25.945Z,100659.13
2023-01-27T12:47:29.378Z,100653.47
2023-01-27T12:49:37.804Z,100653.31
2023-01-27T12:51:48.425Z,100653.59
2023-01-27T12:53:51.366Z,100659.00
2023-01-27T12:56:08.205Z,100659.91
2023-01-27T12:58:34.000Z,100663.84
2023-01-27T13:00:35.603Z,100662.00
2023-01-27T13:02:38.365Z,100658.88
2023-01-27T13:04:40.947Z,100661.72
2023-01-27T13:06:47.507Z,100669.31
2023-01-27T13:08:51.864Z,100666.91
2023-01-27T13:10:59.602Z,100668.94
2023-01-27T13:13:01.346Z,100665.44
2023-01-27T13:15:16.722Z,100662.84
2023-01-27T13:17:37.509Z,100663.59
2023-01-27T13:19:45.516Z,100665.38
2023-01-27T13:21:51.284Z,100666.53
2023-01-27T13:23:54.022Z,100671.00
2023-01-27T13:26:04.441Z,100669.97
2023-01-27T13:28:08.766Z,100665.00
2023-01-27T13:30:19.138Z,100662.19
2023-01-27T13:32:32.841Z,100665.63
2023-01-27T13:34:52.627Z,100666.13
2023-01-27T13:37:08.391Z,100668.84
2023-01-27T13:39:23.796Z,100677.44
2023-01-27T13:42:13.370Z,100685.16
2023-01-27T13:44:27.176Z,100679.88
2023-01-27T13:46:33.352Z,100679.34
2023-01-27T13:48:40.537Z,100678.78
2023-01-27T13:50:42.040Z,100680.41
2023-01-27T13:52:52.939Z,100684.75
2023-01-27T13:54:54.713Z,100688.41
2023-01-27T13:57:01.892Z,100692.44
2023-01-27T13:59:19.780Z,100692.13
2023-01-27T14:01:33.047Z,100693.94
2023-01-27T14:03:59.437Z,100696.19
2023-01-27T14:06:38.335Z,100693.56
2023-01-27T14:08:49.894Z,100695.81
2023-01-27T14:11:19.894Z,100690.75
2023-01-27T14:13:39.474Z,100701.09
2023-01-27T14:15:56.136Z,100705.66
2023-01-27T14:18:04.469Z,100707.81
2023-01-27T14:20:05.806Z,100704.13
2023-01-27T14:22:32.626Z,100703.81
2023-01-27T14:24:51.858Z,100707.81
2023-01-27T14:27:00.767Z,100690.31
2023-01-27T14:29:08.048Z,100702.13
2023-01-27T14:31:14.679Z,100702.81
2023-01-27T14:33:23.853Z,100699.63
2023-01-27T14:35:37.173Z,100697.06
2023-01-27T14:37:53.608Z,100693.19
2023-01-27T14:40:17.429Z,100703.47
2023-01-27T14:42:32.266Z,100700.47
2023-01-27T14:44:44.198Z,100697.19
2023-01-27T14:47:25.751Z,100697.06
2023-01-27T14:50:04.024Z,100696.19
2023-01-27T14:52:15.822Z,100695.72
2023-01-27T14:54:49.797Z,100694.84
2023-01-27T14:57:05.653Z,100698.59
2023-01-27T14:59:35.113Z,100702.59
2023-01-27T15:02:23.699Z,100708.91
2023-01-27T15:04:49.868Z,100708.44
2023-01-27T15:07:19.308Z,100718.47
2023-01-27T15:09:51.489Z,100714.19
2023-01-27T15:12:06.625Z,100714.44
2023-01-27T15:14:33.971Z,100716.28
2023-01-27T15:17:20.311Z,100720.19
2023-01-27T15:19:36.961Z,100722.13
2023-01-27T15:21:47.422Z,100728.69
2023-01-27T15:24:13.600Z,100725.91
2023-01-27T15:26:21.041Z,100724.75
2023-01-27T15:28:28.565Z,100734.06
2023-01-27T15:30:31.351Z,100735.56
2023-01-27T15:32:37.824Z,100728.03
2023-01-27T15:34:39.346Z,100732.59
2023-01-27T15:37:00.946Z,100741.53
2023-01-27T15:39:11.481Z,100742.00
2023-01-27T15:41:15.225Z,100742.28
2023-01-27T15:43:25.288Z,100743.25
2023-01-27T15:45:36.231Z,100748.50
2023-01-27T15:47:37.672Z,100747.81
2023-01-27T15:49:47.239Z,100754.53
2023-01-27T15:51:52.558Z,100752.19
2023-01-27T15:53:58.494Z,100758.78
2023-01-27T15:56:01.302Z,100756.78
2023-01-27T15:58:37.727Z,100755.84
2023-01-27T16:00:42.662Z,100758.03
2023-01-27T16:02:46.961Z,100759.28
2023-01-27T16:05:03.769Z,100760.34
2023-01-27T16:07:06.175Z,100767.28
2023-01-27T16:09:08.689Z,100770.03
2023-01-27T16:11:28.387Z,100770.88
2023-01-27T16:13:30.013Z,100770.66
2023-01-27T16:15:33.856Z,100768.56
2023-01-27T16:17:55.149Z,100779.88
2023-01-27T16:19:59.333Z,100761.28
2023-01-27T16:22:04.493Z,100773.09
2023-01-27T16:24:15.664Z,100764.16
2023-01-27T16:26:40.489Z,100774.22
2023-01-27T16:28:45.907Z,100775.03
2023-01-27T16:30:58.258Z,100779.97
2023-01-27T16:33:22.208Z,100784.13
2023-01-27T16:35:24.136Z,100786.97
2023-01-27T16:37:36.547Z,100795.34
2023-01-27T16:39:54.603Z,100795.94
2023-01-27T16:41:59.014Z,100797.50
2023-01-27T16:44:15.167Z,100791.44
2023-01-27T16:46:25.044Z,100791.94
2023-01-27T16:48:37.839Z,100789.03
2023-01-27T16:50:41.851Z,100798.50
2023-01-27T16:52:45.228Z,100796.56
2023-01-27T16:54:51.970Z,100803.75
2023-01-27T16:56:53.596Z,100797.69
2023-01-27T16:59:02.990Z,100802.78
2023-01-27T17:01:04.643Z,100805.13
2023-01-27T17:03:16.255Z,100817.88
2023-01-27T17:05:19.472Z,100812.41
2023-01-27T17:07:20.992Z,100818.72
2023-01-27T17:09:25.889Z,100816.25
2023-01-27T17:11:32.959Z,100817.50
2023-01-27T17:13:42.391Z,100822.03
2023-01-27T17:15:44.442Z,100832.34
2023-01-27T17:17:46.185Z,100828.63
2023-01-27T17:19:49.823Z,100824.94
2023-01-27T17:22:24.428Z,100824.13
2023-01-27T17:24:32.131Z,100835.69
2023-01-27T17:26:35.110Z,100826.19
2023-01-27T17:28:37.229Z,100834.91
2023-01-27T17:30:41.717Z,100839.13
2023-01-27T17:32:48.076Z,100838.59
2023-01-27T17:34:52.524Z,100832.97
2023-01-27T17:37:16.369Z,100837.91
2023-01-27T17:39:26.262Z,100835.44
2023-01-27T17:41:29.742Z,100841.91
2023-01-27T17:43:36.173Z,100841.84
2023-01-27T17:45:37.962Z,100839.41
2023-01-27T17:47:43.736Z,100838.19
2023-01-27T17:49:47.613Z,100838.47
2023-01-27T17:51:54.372Z,100832.97
2023-01-27T17:53:56.653Z,100834.91
2023-01-27T17:55:59.297Z,100837.34
2023-01-27T17:58:15.390Z,100845.06
2023-01-27T18:00:27.899Z,100834.19
2023-01-27T18:02:34.592Z,100840.78
2023-01-27T18:04:40.729Z,100836.25
2023-01-27T18:06:42.510Z,100834.06
2023-01-27T18:08:52.966Z,100827.06
2023-01-27T18:11:09.430Z,100836.16
2023-01-27T18:13:19.894Z,100839.69
2023-01-27T18:15:40.750Z,100841.63
2023-01-27T18:17:42.159Z,100844.75
2023-01-27T18:19:53.465Z,100841.63
2023-01-27T18:22:15.002Z,100849.44
2023-01-27T18:24:23.255Z,100843.94
2023-01-27T18:26:30.562Z,100845.59
2023-01-27T18:28:37.355Z,100858.34
2023-01-27T18:30:46.330Z,100858.22
2023-01-27T18:32:51.829Z,100863.72
2023-01-27T18:34:57.950Z,100860.59
2023-01-27T18:37:04.216Z,100867.16
2023-01-27T18:39:32.616Z,100875.84
2023-01-27T18:41:37.504Z,100874.88
2023-01-27T18:43:38.864Z,100880.94
2023-01-27T18:45:43.047Z,100878.84
2023-01-27T18:47:45.298Z,100884.91
2023-01-27T18:49:55.619Z,100889.47
2023-01-27T18:51:57.321Z,100886.97
2023-01-27T18:53:58.733Z,100887.28
2023-01-27T18:56:02.034Z,100887.94
2023-01-27T18:58:04.488Z,100886.56
2023-01-27T19:00:06.536Z,100884.25
2023-01-27T19:02:15.378Z,100889.75
2023-01-27T19:04:16.854Z,100889.88
2023-01-27T19:06:18.336Z,100890.16
2023-01-27T19:08:22.233Z,100892.38
2023-01-27T19:10:28.088Z,100895.13
2023-01-27T19:12:29.485Z,100888.09
2023-01-27T19:14:31.373Z,100893.72
2023-01-27T19:16:33.622Z,100899.22
2023-01-27T19:18:37.337Z,100892.66
2023-01-27T19:20:39.149Z,100903.38
2023-01-27T19:22:40.810Z,100895.81
2023-01-27T19:24:45.273Z,100900.34
2023-01-27T19:26:46.745Z,100902.81
2023-01-27T19:28:55.795Z,100898.72
2023-01-27T19:30:58.284Z,100891.16
2023-01-27T19:32:59.741Z,100891.88
2023-01-27T19:35:01.498Z,100896.50
2023-01-27T19:37:03.034Z,100897.75
2023-01-27T19:39:07.484Z,100900.25
2023-01-27T19:41:10.766Z,100900.09
2023-01-27T19:43:13.600Z,100899.53
2023-01-27T19:45:17.127Z,100895.81
2023-01-27T19:47:18.493Z,100895.72
2023-01-27T19:49:19.850Z,100899.28
2023-01-27T19:51:21.365Z,100906.00
2023-01-27T19:53:22.715Z,100908.72
2023-01-27T19:55:24.967Z,100900.09
2023-01-27T19:57:26.368Z,100906.41
2023-01-27T19:59:28.344Z,100913.53
2023-01-27T20:01:29.817Z,100905.31
2023-01-27T20:03:31.311Z,100911.59
2023-01-27T20:05:35.178Z,100912.44
2023-01-27T20:07:36.876Z,100911.75
2023-01-27T20:09:38.266Z,100912.44
2023-01-27T20:11:42.327Z,100915.03
2023-01-27T20:13:43.712Z,100908.88
2023-01-27T20:15:46.070Z,100917.25
2023-01-27T20:17:47.552Z,100909.44
2023-01-27T20:19:49.737Z,100915.06
2023-01-27T20:21:51.356Z,100913.00
2023-01-27T20:23:53.051Z,100917.13
2023-01-27T20:25:56.157Z,100916.56
2023-01-27T20:27:59.772Z,100909.84
2023-01-27T20:30:01.244Z,100913.84
2023-01-27T20:32:03.333Z,100915.84
2023-01-27T20:34:04.734Z,100918.34
2023-01-27T20:36:16.653Z,100922.59
2023-01-27T20:38:18.110Z,100925.91
2023-01-27T20:40:22.105Z,100927.69
2023-01-27T20:42:24.092Z,100925.91
2023-01-27T20:44:25.541Z,100922.06
2023-01-27T20:46:28.486Z,100927.41
2023-01-27T20:48:29.886Z,100925.06
2023-01-27T20:50:31.349Z,100928.09
2023-01-27T20:52:36.941Z,100930.28
2023-01-27T20:54:38.302Z,100935.50
2023-01-27T20:56:39.738Z,100931.09
2023-01-27T20:58:41.651Z,100933.84
2023-01-27T21:00:44.035Z,100941.09
2023-01-27T21:02:45.727Z,100933.00
2023-01-27T21:04:47.226Z,100935.09
2023-01-27T21:06:48.816Z,100939.59
2023-01-27T21:08:50.522Z,100941.38
2023-01-27T21:10:52.010Z,100942.38
2023-01-27T21:12:53.399Z,100934.00
2023-01-27T21:14:55.949Z,100937.81
2023-01-27T21:16:57.392Z,100934.66
2023-01-27T21:18:58.800Z,100938.78
2023-01-27T21:21:01.684Z,100936.16
2023-01-27T21:23:03.046Z,100935.06
2023-01-27T21:25:04.693Z,100945.50
2023-01-27T21:27:06.150Z,100940.84
2023-01-27T21:29:11.253Z,100944.25
2023-01-27T21:31:16.341Z,100944.81
2023-01-27T21:33:17.877Z,100943.44
2023-01-27T21:35:19.254Z,100941.09
2023-01-27T21:37:20.595Z,100938.22
2023-01-27T21:39:22.476Z,100935.50
2023-01-27T21:41:43.686Z,100930.41
2023-01-27T21:44:03.474Z,100926.28
2023-01-27T21:46:04.814Z,100926.28
2023-01-27T21:48:06.278Z,100922.31
2023-01-27T21:50:10.792Z,100931.13
2023-01-27T21:52:12.153Z,100917.91
2023-01-27T21:54:13.569Z,100921.19
2023-01-27T21:56:14.917Z,100920.69
2023-01-27T21:58:16.432Z,100926.13
2023-01-27T22:00:28.413Z,100927.13
2023-01-27T22:02:29.851Z,100931.06
2023-01-27T22:04:31.260Z,100930.94
2023-01-27T22:06:32.812Z,100924.91
2023-01-27T22:08:34.705Z,100925.88
2023-01-27T22:10:36.080Z,100930.91
2023-01-27T22:12:37.416Z,100934.63
2023-01-27T22:14:38.940Z,100934.34
2023-01-27T22:16:40.331Z,100928.88
2023-01-27T22:18:42.584Z,100936.56
2023-01-27T22:20:44.181Z,100936.81
2023-01-27T22:22:46.001Z,100938.19
2023-01-27T22:24:47.407Z,100934.78
2023-01-27T22:26:48.807Z,100925.97
2023-01-27T22:28:50.168Z,100934.22
2023-01-27T22:30:51.617Z,100935.72
2023-01-27T22:32:53.178Z,100931.19
2023-01-27T22:34:54.607Z,100931.34
2023-01-27T22:36:56.000Z,100926.97
2023-01-27T22:38:57.354Z,100924.88
2023-01-27T22:40:59.097Z,100931.34
2023-01-27T22:43:00.904Z,100928.28
2023-01-27T22:45:02.366Z,100931.34
2023-01-27T22:47:03.829Z,100926.91
2023-01-27T22:49:05.498Z,100921.03
2023-01-27T22:51:06.915Z,100923.38
2023-01-27T22:53:08.352Z,100923.75
2023-01-27T22:55:11.459Z,100923.63
2023-01-27T22:57:12.845Z,100926.50
2023-01-27T22:59:14.307Z,100925.81
2023-01-27T23:01:15.769Z,100927.34
2023-01-27T23:03:17.186Z,100926.63
2023-01-27T23:05:18.566Z,100925.94
2023-01-27T23:07:20.463Z,100929.66
2023-01-27T23:09:21.833Z,100932.00
2023-01-27T23:11:23.459Z,100926.09
2023-01-27T23:13:24.831Z,100925.69
2023-01-27T23:15:26.318Z,100929.53
2023-01-27T23:17:27.762Z,100931.84
2023-01-27T23:19:29.376Z,100931.72
2023-01-27T23:21:31.468Z,100934.06
2023-01-27T23:23:36.805Z,100929.13
2023-01-27T23:25:45.838Z,100931.66
2023-01-27T23:27:47.234Z,100929.34
2023-01-27T23:29:48.583Z,100930.44
2023-01-27T23:31:50.055Z,100929.59
2023-01-27T23:33:51.528Z,100929.59
2023-01-27T23:35:57.316Z,100930.72
2023-01-27T23:37:58.693Z,100934.00
2023-01-27T23:40:00.102Z,100936.06
2023-01-27T23:42:01.549Z,100935.09
2023-01-27T23:44:02.895Z,100933.22
2023-01-27T23:46:04.546Z,100937.13
2023-01-27T23:48:05.956Z,100937.97
2023-01-27T23:50:07.961Z,100935.50
2023-01-27T23:52:09.328Z,100945.41
2023-01-27T23:54:11.009Z,100934.94
2023-01-27T23:56:16.831Z,100935.25
2023-01-27T23:58:18.182Z,100929.72
